createdAt,value
2023-05-05T00:00:20.918Z,7.82
2023-05-05T00:02:48.237Z,7.88
2023-05-05T00:05:14.992Z,7.91
2023-05-05T00:07:41.963Z,7.83
2023-05-05T00:10:09.750Z,7.83
2023-05-05T00:12:36.872Z,7.88
2023-05-05T00:15:03.969Z,7.88
2023-05-05T00:17:30.866Z,7.85
2023-05-05T00:19:58.094Z,7.81
2023-05-05T00:22:24.765Z,7.80
2023-05-05T00:24:51.465Z,7.81
2023-05-05T00:27:18.170Z,7.81
2023-05-05T00:29:44.855Z,7.72
2023-05-05T00:32:11.589Z,7.71
2023-05-05T00:34:38.293Z,7.78
2023-05-05T00:37:05.031Z,7.76
2023-05-05T00:39:33.283Z,7.71
2023-05-05T00:42:00.037Z,7.68
2023-05-05T00:44:41.087Z,7.72
2023-05-05T00:47:11.455Z,7.65
2023-05-05T00:49:38.324Z,7.71
2023-05-05T00:52:05.414Z,7.67
2023-05-05T00:54:32.429Z,7.58
2023-05-05T00:56:59.115Z,7.58
2023-05-05T00:59:25.893Z,7.60
2023-05-05T01:01:52.748Z,7.60
2023-05-05T01:04:19.490Z,7.60
2023-05-05T01:06:54.741Z,7.58
2023-05-05T01:09:47.243Z,7.59
2023-05-05T01:12:41.777Z,7.54
2023-05-05T01:15:15.911Z,7.51
2023-05-05T01:17:56.115Z,7.49
2023-05-05T01:21:01.622Z,7.48
2023-05-05T01:23:36.993Z,7.47
2023-05-05T01:26:29.852Z,7.47
2023-05-05T01:29:22.926Z,7.42
2023-05-05T01:31:53.747Z,7.37
2023-05-05T01:34:34.542Z,7.33
2023-05-05T01:37:22.364Z,7.33
2023-05-05T01:39:53.367Z,7.32
2023-05-05T01:42:20.097Z,7.24
2023-05-05T01:44:46.797Z,7.22
2023-05-05T01:47:16.188Z,7.18
2023-05-05T01:49:47.105Z,7.21
2023-05-05T01:52:14.890Z,7.16
2023-05-05T01:54:42.402Z,7.23
2023-05-05T01:57:09.256Z,7.23
2023-05-05T01:59:37.013Z,7.22
2023-05-05T02:02:03.874Z,7.13
2023-05-05T02:04:31.807Z,7.15
2023-05-05T02:06:58.641Z,7.08
2023-05-05T02:09:25.732Z,7.03
2023-05-05T02:11:52.980Z,6.93
2023-05-05T02:14:19.868Z,6.86
2023-05-05T02:16:46.919Z,6.74
2023-05-05T02:19:14.108Z,6.68
2023-05-05T02:21:41.390Z,6.56
2023-05-05T02:24:08.761Z,6.55
2023-05-05T02:26:36.158Z,6.51
2023-05-05T02:29:11.154Z,6.53
2023-05-05T02:31:45.787Z,6.50
2023-05-05T02:34:12.572Z,6.44
2023-05-05T02:36:40.043Z,6.41
2023-05-05T02:39:14.729Z,6.37
2023-05-05T02:41:41.692Z,6.30
2023-05-05T02:44:08.575Z,6.27
2023-05-05T02:46:35.658Z,6.17
2023-05-05T02:49:02.380Z,6.15
2023-05-05T02:51:29.081Z,6.08
2023-05-05T02:53:56.368Z,6.02
2023-05-05T02:56:32.781Z,5.94
2023-05-05T02:59:18.178Z,5.91
2023-05-05T03:02:01.150Z,5.85
2023-05-05T03:04:31.988Z,5.77
2023-05-05T03:06:59.885Z,5.75
2023-05-05T03:09:51.396Z,5.77
2023-05-05T03:12:21.762Z,5.71
2023-05-05T03:14:48.879Z,5.63
2023-05-05T03:17:15.570Z,5.66
2023-05-05T03:19:43.220Z,5.59
2023-05-05T03:22:10.067Z,5.67
2023-05-05T03:24:36.865Z,5.77
2023-05-05T03:27:03.604Z,5.86
2023-05-05T03:29:30.310Z,5.92
2023-05-05T03:31:57.115Z,6.01
2023-05-05T03:34:23.907Z,5.96
2023-05-05T03:36:50.663Z,6.11
2023-05-05T03:39:18.860Z,6.47
2023-05-05T03:41:45.687Z,6.76
2023-05-05T03:44:12.395Z,7.04
2023-05-05T03:46:39.269Z,7.33
2023-05-05T03:49:05.958Z,7.72
2023-05-05T03:51:32.720Z,7.96
2023-05-05T03:53:59.451Z,8.23
2023-05-05T03:56:26.172Z,8.23
2023-05-05T03:58:52.909Z,8.25
2023-05-05T04:01:19.603Z,8.60
2023-05-05T04:03:46.443Z,8.92
2023-05-05T04:06:13.284Z,9.25
2023-05-05T04:08:40.087Z,9.63
2023-05-05T04:11:07.017Z,9.82
2023-05-05T04:13:33.720Z,9.97
2023-05-05T04:16:00.480Z,10.25
2023-05-05T04:18:27.211Z,10.70
2023-05-05T04:20:53.945Z,11.05
2023-05-05T04:23:20.700Z,11.47
2023-05-05T04:25:47.756Z,11.90
2023-05-05T04:28:14.502Z,12.39
2023-05-05T04:30:41.280Z,12.85
2023-05-05T04:33:08.060Z,13.05
2023-05-05T04:35:34.894Z,12.68
2023-05-05T04:38:02.003Z,12.15
2023-05-05T04:40:28.735Z,11.79
2023-05-05T04:42:55.524Z,11.34
2023-05-05T04:45:22.305Z,10.93
2023-05-05T04:47:49.118Z,10.59
2023-05-05T04:50:16.650Z,10.33
2023-05-05T04:52:43.339Z,10.04
2023-05-05T04:55:10.841Z,9.87
2023-05-05T04:57:37.619Z,9.74
2023-05-05T05:00:05.594Z,9.74
2023-05-05T05:02:32.612Z,9.86
2023-05-05T05:04:59.391Z,10.05
2023-05-05T05:07:26.464Z,10.70
2023-05-05T05:09:53.178Z,11.54
2023-05-05T05:12:19.933Z,12.53
2023-05-05T05:14:46.718Z,13.56
2023-05-05T05:17:13.571Z,14.38
2023-05-05T05:19:40.297Z,14.89
2023-05-05T05:22:06.976Z,14.90
2023-05-05T05:24:34.862Z,14.94
2023-05-05T05:27:01.682Z,15.27
2023-05-05T05:29:28.423Z,15.03
2023-05-05T05:31:55.135Z,15.28
2023-05-05T05:34:21.830Z,15.78
2023-05-05T05:36:48.572Z,15.89
2023-05-05T05:39:15.332Z,16.02
2023-05-05T05:41:42.159Z,16.04
2023-05-05T05:44:08.850Z,16.25
2023-05-05T05:46:35.694Z,16.85
2023-05-05T05:49:02.537Z,17.74
2023-05-05T05:51:29.324Z,18.42
2023-05-05T05:53:58.685Z,19.04
2023-05-05T05:56:25.600Z,19.73
2023-05-05T05:58:52.441Z,20.24
2023-05-05T06:01:19.518Z,20.71
2023-05-05T06:03:46.380Z,21.10
2023-05-05T06:06:13.140Z,21.56
2023-05-05T06:08:39.860Z,21.86
2023-05-05T06:11:06.604Z,22.12
2023-05-05T06:13:33.428Z,22.33
2023-05-05T06:16:00.427Z,22.70
2023-05-05T06:18:27.342Z,22.90
2023-05-05T06:20:54.128Z,23.36
2023-05-05T06:23:20.901Z,23.56
2023-05-05T06:25:48.075Z,23.90
2023-05-05T06:28:14.857Z,24.06
2023-05-05T06:30:41.620Z,24.25
2023-05-05T06:33:08.474Z,24.37
2023-05-05T06:35:35.207Z,24.62
2023-05-05T06:38:01.903Z,24.92
2023-05-05T06:40:28.688Z,25.11
2023-05-05T06:42:55.510Z,25.35
2023-05-05T06:45:22.273Z,25.62
2023-05-05T06:47:49.609Z,25.83
2023-05-05T06:50:16.658Z,26.08
2023-05-05T06:52:43.388Z,26.28
2023-05-05T06:55:10.257Z,26.25
2023-05-05T06:57:36.998Z,26.34
2023-05-05T07:00:09.811Z,26.71
2023-05-05T07:02:37.216Z,27.04
2023-05-05T07:05:04.403Z,27.21
2023-05-05T07:07:32.452Z,27.65
2023-05-05T07:09:59.230Z,27.93
2023-05-05T07:12:25.925Z,28.11
2023-05-05T07:14:52.681Z,28.43
2023-05-05T07:17:19.401Z,28.78
2023-05-05T07:19:46.151Z,29.10
2023-05-05T07:22:12.882Z,29.54
2023-05-05T07:24:39.561Z,29.82
2023-05-05T07:27:07.067Z,29.98
2023-05-05T07:29:33.825Z,30.19
2023-05-05T07:32:00.735Z,30.39
2023-05-05T07:34:27.869Z,30.57
2023-05-05T07:36:56.436Z,30.72
2023-05-05T07:39:23.193Z,31.20
2023-05-05T07:41:50.036Z,31.19
2023-05-05T07:44:16.814Z,31.42
2023-05-05T07:46:43.549Z,31.62
2023-05-05T07:49:10.477Z,31.83
2023-05-05T07:51:37.703Z,28.88
2023-05-05T07:54:04.426Z,26.40
2023-05-05T07:56:31.194Z,25.40
2023-05-05T07:58:57.896Z,24.04
2023-05-05T08:01:24.560Z,23.49
2023-05-05T08:03:51.519Z,23.47
2023-05-05T08:06:25.294Z,23.43
2023-05-05T08:08:53.504Z,22.87
2023-05-05T08:11:21.794Z,23.38
2023-05-05T08:13:48.779Z,23.64
2023-05-05T08:16:15.904Z,23.12
2023-05-05T08:18:42.812Z,22.71
2023-05-05T08:21:09.722Z,23.18
2023-05-05T08:23:36.419Z,22.69
2023-05-05T08:26:03.667Z,22.81
2023-05-05T08:28:30.574Z,21.10
2023-05-05T08:30:57.322Z,21.90
2023-05-05T08:33:24.025Z,21.20
2023-05-05T08:35:50.869Z,20.90
2023-05-05T08:38:19.136Z,21.63
2023-05-05T08:40:45.943Z,20.69
2023-05-05T08:43:12.727Z,21.21
2023-05-05T08:45:40.827Z,21.39
2023-05-05T08:48:07.736Z,21.91
2023-05-05T08:50:34.564Z,22.86
2023-05-05T08:53:22.504Z,22.48
2023-05-05T08:55:52.506Z,21.65
2023-05-05T08:58:19.685Z,22.78
2023-05-05T09:00:46.779Z,23.18
2023-05-05T09:03:13.658Z,23.83
2023-05-05T09:05:40.544Z,24.13
2023-05-05T09:08:10.034Z,24.63
2023-05-05T09:10:36.914Z,24.60
2023-05-05T09:13:05.376Z,24.66
2023-05-05T09:15:33.090Z,24.85
2023-05-05T09:18:00.833Z,24.85
2023-05-05T09:20:37.576Z,24.94
2023-05-05T09:23:20.064Z,24.65
2023-05-05T09:25:48.822Z,24.91
2023-05-05T09:28:17.181Z,24.09
2023-05-05T09:30:45.443Z,22.89
2023-05-05T09:33:12.384Z,22.89
2023-05-05T09:35:55.834Z,23.15
2023-05-05T09:38:23.410Z,23.44
2023-05-05T09:40:53.794Z,23.69
2023-05-05T09:43:21.998Z,23.73
2023-05-05T09:45:49.227Z,23.85
2023-05-05T09:48:29.753Z,23.93
2023-05-05T09:50:57.186Z,24.00
2023-05-05T09:53:24.405Z,24.25
2023-05-05T09:55:55.222Z,23.63
2023-05-05T09:58:24.136Z,22.87
2023-05-05T10:00:51.006Z,22.77
2023-05-05T10:03:17.913Z,23.17
2023-05-05T10:05:55.708Z,23.18
2023-05-05T10:08:30.519Z,23.18
2023-05-05T10:11:00.735Z,22.33
2023-05-05T10:13:27.968Z,22.45
2023-05-05T10:15:56.124Z,22.75
2023-05-05T10:18:27.052Z,22.54
2023-05-05T10:21:01.341Z,23.02
2023-05-05T10:23:49.072Z,22.97
2023-05-05T10:26:15.973Z,23.58
2023-05-05T10:29:04.128Z,23.36
2023-05-05T10:32:00.607Z,22.95
2023-05-05T10:34:35.846Z,23.86
2023-05-05T10:37:04.643Z,24.11
2023-05-05T10:39:31.545Z,24.28
2023-05-05T10:42:02.001Z,24.39
2023-05-05T10:44:32.056Z,24.69
2023-05-05T10:46:58.799Z,24.43
2023-05-05T10:49:41.539Z,25.06
2023-05-05T10:52:38.178Z,23.86
2023-05-05T10:55:16.354Z,23.75
2023-05-05T10:57:44.706Z,23.98
2023-05-05T11:00:31.858Z,23.05
2023-05-05T11:03:18.545Z,23.33
2023-05-05T11:06:12.687Z,23.25
2023-05-05T11:08:43.926Z,23.28
2023-05-05T11:11:11.297Z,22.95
2023-05-05T11:13:38.988Z,22.96
2023-05-05T11:16:06.064Z,22.71
2023-05-05T11:18:37.042Z,23.25
2023-05-05T11:21:07.328Z,23.22
2023-05-05T11:23:34.358Z,23.20
2023-05-05T11:26:01.903Z,23.07
2023-05-05T11:28:32.397Z,22.67
2023-05-05T11:31:02.286Z,22.28
2023-05-05T11:33:33.311Z,22.17
2023-05-05T11:36:07.556Z,22.38
2023-05-05T11:39:11.956Z,22.13
2023-05-05T11:42:06.588Z,21.04
2023-05-05T11:44:36.380Z,21.23
2023-05-05T11:47:06.122Z,21.25
2023-05-05T11:49:34.076Z,21.27
2023-05-05T11:52:02.434Z,21.58
2023-05-05T11:54:29.412Z,22.10
2023-05-05T11:57:00.662Z,21.83
2023-05-05T11:59:27.615Z,21.61
2023-05-05T12:01:54.437Z,21.75
2023-05-05T12:04:21.438Z,21.36
2023-05-05T12:06:49.260Z,21.30
2023-05-05T12:09:20.235Z,21.35
2023-05-05T12:11:54.067Z,21.17
2023-05-05T12:14:21.172Z,21.60
2023-05-05T12:17:06.697Z,22.15
2023-05-05T12:19:33.856Z,21.98
2023-05-05T12:22:04.477Z,21.88
2023-05-05T12:24:31.667Z,21.89
2023-05-05T12:27:11.260Z,22.47
2023-05-05T12:29:38.243Z,22.05
2023-05-05T12:32:05.425Z,21.39
2023-05-05T12:34:32.294Z,21.60
2023-05-05T12:36:59.141Z,21.50
2023-05-05T12:39:36.708Z,20.75
2023-05-05T12:42:04.434Z,20.25
2023-05-05T12:44:38.065Z,20.64
2023-05-05T12:47:05.057Z,20.97
2023-05-05T12:49:34.462Z,21.14
2023-05-05T12:52:01.656Z,20.94
2023-05-05T12:54:29.841Z,20.74
2023-05-05T12:56:59.703Z,20.46
2023-05-05T12:59:27.553Z,21.08
2023-05-05T13:01:59.972Z,20.97
2023-05-05T13:04:27.987Z,21.06
2023-05-05T13:07:14.342Z,20.65
2023-05-05T13:09:41.359Z,20.46
2023-05-05T13:12:13.877Z,20.00
2023-05-05T13:14:40.944Z,20.20
2023-05-05T13:17:07.911Z,20.55
2023-05-05T13:19:42.938Z,20.07
2023-05-05T13:22:13.015Z,19.05
2023-05-05T13:24:50.684Z,18.92
2023-05-05T13:27:18.177Z,18.67
2023-05-05T13:29:45.004Z,19.07
2023-05-05T13:32:11.897Z,19.31
2023-05-05T13:34:39.542Z,19.64
2023-05-05T13:37:06.572Z,19.62
2023-05-05T13:39:33.474Z,19.50
2023-05-05T13:42:00.254Z,19.26
2023-05-05T13:44:27.047Z,19.22
2023-05-05T13:46:54.006Z,18.83
2023-05-05T13:49:20.905Z,18.25
2023-05-05T13:51:47.657Z,17.90
2023-05-05T13:54:14.444Z,17.85
2023-05-05T13:56:41.332Z,18.36
2023-05-05T13:59:08.200Z,18.75
2023-05-05T14:01:35.202Z,18.65
2023-05-05T14:04:05.154Z,19.35
2023-05-05T14:06:33.012Z,19.20
2023-05-05T14:08:59.900Z,18.89
2023-05-05T14:11:26.717Z,19.25
2023-05-05T14:13:53.453Z,19.87
2023-05-05T14:16:20.340Z,20.09
2023-05-05T14:18:47.172Z,19.51
2023-05-05T14:21:13.960Z,18.97
2023-05-05T14:23:40.880Z,18.87
2023-05-05T14:26:09.171Z,19.48
2023-05-05T14:28:36.146Z,19.53
2023-05-05T14:31:02.954Z,19.25
2023-05-05T14:33:31.109Z,18.19
2023-05-05T14:35:57.829Z,18.54
2023-05-05T14:38:24.727Z,18.53
2023-05-05T14:40:51.490Z,18.76
2023-05-05T14:43:18.638Z,19.25
2023-05-05T14:45:45.548Z,20.18
2023-05-05T14:48:12.346Z,20.93
2023-05-05T14:50:40.709Z,22.13
2023-05-05T14:53:07.568Z,22.92
2023-05-05T14:55:34.337Z,23.58
2023-05-05T14:58:01.391Z,24.02
2023-05-05T15:00:28.663Z,23.87
2023-05-05T15:02:55.572Z,23.93
2023-05-05T15:05:22.432Z,23.85
2023-05-05T15:07:49.395Z,23.54
2023-05-05T15:10:17.260Z,23.26
2023-05-05T15:12:45.064Z,22.80
2023-05-05T15:15:12.048Z,22.76
2023-05-05T15:17:39.024Z,22.34
2023-05-05T15:20:06.907Z,21.92
2023-05-05T15:22:33.861Z,21.24
2023-05-05T15:25:01.373Z,20.82
2023-05-05T15:27:28.358Z,20.24
2023-05-05T15:29:55.460Z,19.76
2023-05-05T15:32:22.389Z,19.09
2023-05-05T15:34:50.526Z,18.91
2023-05-05T15:37:17.542Z,18.74
2023-05-05T15:39:44.311Z,18.51
2023-05-05T15:42:11.185Z,18.38
2023-05-05T15:44:38.113Z,18.09
2023-05-05T15:47:05.157Z,17.81
2023-05-05T15:49:32.103Z,17.42
2023-05-05T15:51:58.964Z,17.21
2023-05-05T15:54:26.081Z,16.79
2023-05-05T15:56:52.963Z,16.83
2023-05-05T15:59:19.731Z,16.60
2023-05-05T16:01:47.314Z,16.20
2023-05-05T16:04:14.200Z,15.84
2023-05-05T16:06:41.195Z,15.47
2023-05-05T16:09:08.018Z,15.04
2023-05-05T16:11:35.063Z,14.73
2023-05-05T16:14:01.923Z,14.18
2023-05-05T16:16:28.815Z,13.72
2023-05-05T16:18:55.755Z,13.38
2023-05-05T16:21:22.567Z,13.00
2023-05-05T16:23:49.353Z,12.65
2023-05-05T16:26:16.211Z,12.49
2023-05-05T16:28:43.116Z,12.25
2023-05-05T16:31:11.133Z,12.21
2023-05-05T16:33:43.573Z,12.06
2023-05-05T16:36:11.645Z,11.96
2023-05-05T16:38:39.216Z,11.86
2023-05-05T16:41:07.173Z,11.52
2023-05-05T16:43:34.219Z,11.52
2023-05-05T16:46:01.068Z,11.43
2023-05-05T16:48:28.006Z,11.41
2023-05-05T16:50:57.110Z,11.27
2023-05-05T16:53:24.237Z,11.14
2023-05-05T16:55:54.777Z,10.95
2023-05-05T16:58:22.565Z,10.79
2023-05-05T17:00:50.107Z,10.73
2023-05-05T17:03:17.375Z,10.73
2023-05-05T17:05:45.139Z,10.65
2023-05-05T17:08:14.384Z,10.55
2023-05-05T17:10:42.085Z,10.51
2023-05-05T17:13:09.533Z,10.43
2023-05-05T17:15:37.529Z,10.34
2023-05-05T17:18:05.164Z,10.26
2023-05-05T17:20:32.117Z,10.19
2023-05-05T17:22:58.985Z,10.07
2023-05-05T17:25:28.591Z,9.99
2023-05-05T17:27:55.713Z,9.88
2023-05-05T17:30:22.570Z,9.69
2023-05-05T17:32:49.523Z,9.47
2023-05-05T17:35:16.526Z,9.40
2023-05-05T17:37:43.407Z,9.37
2023-05-05T17:40:10.606Z,9.28
2023-05-05T17:42:38.464Z,9.24
2023-05-05T17:45:05.847Z,9.16
2023-05-05T17:47:32.752Z,9.02
2023-05-05T17:49:59.693Z,8.88
2023-05-05T17:52:26.623Z,8.77
2023-05-05T17:54:53.433Z,8.65
2023-05-05T17:57:23.076Z,8.39
2023-05-05T17:59:50.480Z,8.46
2023-05-05T18:02:17.439Z,8.23
2023-05-05T18:04:44.346Z,8.09
2023-05-05T18:07:12.465Z,8.03
2023-05-05T18:09:39.509Z,7.86
2023-05-05T18:12:07.844Z,7.82
2023-05-05T18:14:34.706Z,7.61
2023-05-05T18:17:01.591Z,7.52
2023-05-05T18:19:28.462Z,7.28
2023-05-05T18:21:55.297Z,7.26
2023-05-05T18:24:22.205Z,7.16
2023-05-05T18:26:50.522Z,7.05
2023-05-05T18:29:21.766Z,7.07
2023-05-05T18:31:51.823Z,6.94
2023-05-05T18:34:19.463Z,7.00
2023-05-05T18:36:46.770Z,6.81
2023-05-05T18:39:14.120Z,6.79
2023-05-05T18:41:41.185Z,6.73
2023-05-05T18:44:08.168Z,6.58
2023-05-05T18:46:35.114Z,6.50
2023-05-05T18:49:02.313Z,6.43
2023-05-05T18:51:29.147Z,6.42
2023-05-05T18:53:56.019Z,6.33
2023-05-05T18:56:22.858Z,6.24
2023-05-05T18:58:49.978Z,6.26
2023-05-05T19:01:17.241Z,6.29
2023-05-05T19:03:50.399Z,6.22
2023-05-05T19:06:17.400Z,6.13
2023-05-05T19:08:45.739Z,6.25
2023-05-05T19:11:14.798Z,6.15
2023-05-05T19:13:41.885Z,6.17
2023-05-05T19:16:08.671Z,6.08
2023-05-05T19:18:35.575Z,6.04
2023-05-05T19:21:02.406Z,6.01
2023-05-05T19:23:29.170Z,6.02
2023-05-05T19:25:55.957Z,6.00
2023-05-05T19:28:22.814Z,5.97
2023-05-05T19:30:49.682Z,5.98
2023-05-05T19:33:16.604Z,5.92
2023-05-05T19:35:43.867Z,5.85
2023-05-05T19:38:10.997Z,5.86
2023-05-05T19:40:38.917Z,5.81
2023-05-05T19:43:05.758Z,5.88
2023-05-05T19:45:33.698Z,5.86
2023-05-05T19:48:01.547Z,5.90
2023-05-05T19:50:30.408Z,5.91
2023-05-05T19:52:57.951Z,5.89
2023-05-05T19:55:24.999Z,5.86
2023-05-05T19:57:51.875Z,5.93
2023-05-05T20:00:19.752Z,5.93
2023-05-05T20:02:48.669Z,5.89
2023-05-05T20:05:17.332Z,5.85
2023-05-05T20:07:44.971Z,5.80
2023-05-05T20:10:13.453Z,5.78
2023-05-05T20:12:42.551Z,5.78
2023-05-05T20:15:11.378Z,5.70
2023-05-05T20:17:38.224Z,5.73
2023-05-05T20:20:05.505Z,5.64
2023-05-05T20:22:32.365Z,5.66
2023-05-05T20:24:59.178Z,5.56
2023-05-05T20:27:26.734Z,5.55
2023-05-05T20:29:55.366Z,5.53
2023-05-05T20:32:22.198Z,5.47
2023-05-05T20:34:48.940Z,5.46
2023-05-05T20:37:15.800Z,5.42
2023-05-05T20:39:43.831Z,5.41
2023-05-05T20:42:11.093Z,5.30
2023-05-05T20:44:38.418Z,5.36
2023-05-05T20:47:05.663Z,5.19
2023-05-05T20:49:32.843Z,5.19
2023-05-05T20:51:59.620Z,5.14
2023-05-05T20:54:30.139Z,5.23
2023-05-05T20:56:58.205Z,5.10
2023-05-05T20:59:25.076Z,5.07
2023-05-05T21:01:51.886Z,5.08
2023-05-05T21:04:18.721Z,5.14
2023-05-05T21:06:45.998Z,5.07
2023-05-05T21:09:12.965Z,5.08
2023-05-05T21:11:39.685Z,5.14
2023-05-05T21:14:06.432Z,4.99
2023-05-05T21:16:33.316Z,5.04
2023-05-05T21:19:00.151Z,5.12
2023-05-05T21:21:26.981Z,5.13
2023-05-05T21:23:57.685Z,5.04
2023-05-05T21:26:25.195Z,5.07
2023-05-05T21:28:52.602Z,5.03
2023-05-05T21:31:22.112Z,4.97
2023-05-05T21:33:49.701Z,5.07
2023-05-05T21:36:17.678Z,5.04
2023-05-05T21:38:44.538Z,4.92
2023-05-05T21:41:11.400Z,4.91
2023-05-05T21:43:38.169Z,4.95
2023-05-05T21:46:05.415Z,4.91
2023-05-05T21:48:32.685Z,4.87
2023-05-05T21:50:59.539Z,4.81
2023-05-05T21:53:26.479Z,4.72
2023-05-05T21:55:53.288Z,4.68
2023-05-05T21:58:20.357Z,4.68
2023-05-05T22:00:50.195Z,4.54
2023-05-05T22:03:17.616Z,4.55
2023-05-05T22:05:44.637Z,4.60
2023-05-05T22:08:11.463Z,4.55
2023-05-05T22:10:39.317Z,4.44
2023-05-05T22:13:06.281Z,4.39
2023-05-05T22:15:45.376Z,4.48
2023-05-05T22:18:13.880Z,4.39
2023-05-05T22:20:40.696Z,4.34
2023-05-05T22:23:07.545Z,4.39
2023-05-05T22:25:34.413Z,4.30
2023-05-05T22:28:01.278Z,4.29
2023-05-05T22:30:28.142Z,4.17
2023-05-05T22:32:55.271Z,4.07
2023-05-05T22:35:22.178Z,4.10
2023-05-05T22:37:48.974Z,4.09
2023-05-05T22:40:15.883Z,3.98
2023-05-05T22:42:42.740Z,3.98
2023-05-05T22:45:10.521Z,3.98
2023-05-05T22:47:37.664Z,3.87
2023-05-05T22:50:04.753Z,3.93
2023-05-05T22:52:31.627Z,3.87
2023-05-05T22:54:58.484Z,3.80
2023-05-05T22:57:25.325Z,3.66
2023-05-05T22:59:52.328Z,3.59
2023-05-05T23:02:19.226Z,3.53
2023-05-05T23:04:46.419Z,3.51
2023-05-05T23:07:13.448Z,3.47
2023-05-05T23:09:41.080Z,3.30
2023-05-05T23:12:08.087Z,3.35
2023-05-05T23:14:35.430Z,3.40
2023-05-05T23:17:02.283Z,3.32
2023-05-05T23:19:32.173Z,3.32
2023-05-05T23:21:59.809Z,3.30
2023-05-05T23:24:27.171Z,3.28
2023-05-05T23:26:54.107Z,3.29
2023-05-05T23:29:21.089Z,3.21
2023-05-05T23:31:47.910Z,3.09
2023-05-05T23:34:14.777Z,2.97
2023-05-05T23:36:41.547Z,2.92
2023-05-05T23:39:08.388Z,2.84
2023-05-05T23:41:35.232Z,2.77
2023-05-05T23:44:02.008Z,2.63
2023-05-05T23:46:29.448Z,2.57
2023-05-05T23:48:56.668Z,2.52
2023-05-05T23:51:23.567Z,2.50
2023-05-05T23:53:50.426Z,2.51
2023-05-05T23:56:17.224Z,2.31
2023-05-05T23:58:44.073Z,2.31
